sensor_id;sensor_type;location;lat;lon;timestamp;pressure;altitude;pressure_sealevel;temperature;humidity
20971;BME280;10644;48.834;10.088;2022-12-24T00:01:45;96046.41;;;13.81;70.07
20971;BME280;10644;48.834;10.088;2022-12-24T00:04:11;96060.78;;;13.83;69.88
20971;BME280;10644;48.834;10.088;2022-12-24T00:06:41;96064.63;;;13.89;70.15
20971;BME280;10644;48.834;10.088;2022-12-24T00:09:06;96057.28;;;13.73;70.07
20971;BME280;10644;48.834;10.088;2022-12-24T00:11:32;96072.13;;;13.59;70.83
20971;BME280;10644;48.834;10.088;2022-12-24T00:14:00;96064.28;;;13.60;70.95
20971;BME280;10644;48.834;10.088;2022-12-24T00:16:28;96070.72;;;13.55;71.19
20971;BME280;10644;48.834;10.088;2022-12-24T00:18:56;96071.97;;;13.28;72.08
20971;BME280;10644;48.834;10.088;2022-12-24T00:21:24;96065.75;;;13.30;71.55
20971;BME280;10644;48.834;10.088;2022-12-24T00:23:50;96050.94;;;13.34;71.69
20971;BME280;10644;48.834;10.088;2022-12-24T00:26:20;96057.84;;;13.44;71.29
20971;BME280;10644;48.834;10.088;2022-12-24T00:28:57;96059.56;;;13.32;70.98
20971;BME280;10644;48.834;10.088;2022-12-24T00:31:35;96069.16;;;13.31;71.23
20971;BME280;10644;48.834;10.088;2022-12-24T00:34:07;96070.47;;;13.36;70.94
20971;BME280;10644;48.834;10.088;2022-12-24T00:36:39;96073.75;;;13.38;70.74
20971;BME280;10644;48.834;10.088;2022-12-24T00:39:09;96080.53;;;13.50;70.32
20971;BME280;10644;48.834;10.088;2022-12-24T00:41:35;96082.63;;;13.45;69.63
20971;BME280;10644;48.834;10.088;2022-12-24T00:44:06;96090.56;;;13.31;70.05
20971;BME280;10644;48.834;10.088;2022-12-24T00:46:40;96092.38;;;13.18;70.10
20971;BME280;10644;48.834;10.088;2022-12-24T00:49:07;96086.75;;;13.13;70.16
20971;BME280;10644;48.834;10.088;2022-12-24T00:51:48;96095.44;;;13.23;69.75
20971;BME280;10644;48.834;10.088;2022-12-24T00:54:19;96105.34;;;13.06;70.10
20971;BME280;10644;48.834;10.088;2022-12-24T00:56:44;96104.34;;;13.19;69.89
20971;BME280;10644;48.834;10.088;2022-12-24T00:59:11;96098.03;;;13.23;69.76
20971;BME280;10644;48.834;10.088;2022-12-24T01:01:36;96099.78;;;13.23;69.69
20971;BME280;10644;48.834;10.088;2022-12-24T01:04:03;96100.34;;;13.15;69.95
20971;BME280;10644;48.834;10.088;2022-12-24T01:06:53;96103.59;;;13.06;70.57
20971;BME280;10644;48.834;10.088;2022-12-24T01:09:30;96111.91;;;13.21;70.01
20971;BME280;10644;48.834;10.088;2022-12-24T01:11:56;96104.75;;;13.13;70.10
20971;BME280;10644;48.834;10.088;2022-12-24T01:14:21;96111.31;;;13.17;69.96
20971;BME280;10644;48.834;10.088;2022-12-24T01:16:46;96125.38;;;13.24;69.59
20971;BME280;10644;48.834;10.088;2022-12-24T01:19:14;96107.03;;;13.18;69.35
20971;BME280;10644;48.834;10.088;2022-12-24T01:21:39;96131.91;;;13.17;69.14
20971;BME280;10644;48.834;10.088;2022-12-24T01:24:12;96144.97;;;13.03;69.23
20971;BME280;10644;48.834;10.088;2022-12-24T01:26:38;96155.59;;;13.10;69.31
20971;BME280;10644;48.834;10.088;2022-12-24T01:29:05;96161.34;;;13.13;69.37
20971;BME280;10644;48.834;10.088;2022-12-24T01:31:33;96156.44;;;13.10;69.49
20971;BME280;10644;48.834;10.088;2022-12-24T01:34:06;96154.38;;;13.26;69.33
20971;BME280;10644;48.834;10.088;2022-12-24T01:36:32;96172.44;;;13.37;69.38
20971;BME280;10644;48.834;10.088;2022-12-24T01:39:00;96159.22;;;13.42;69.20
20971;BME280;10644;48.834;10.088;2022-12-24T01:41:31;96171.25;;;13.41;69.46
20971;BME280;10644;48.834;10.088;2022-12-24T01:44:29;96184.13;;;13.41;69.60
20971;BME280;10644;48.834;10.088;2022-12-24T01:49:56;96197.06;;;13.05;71.09
20971;BME280;10644;48.834;10.088;2022-12-24T01:52:33;96193.88;;;13.14;71.31
20971;BME280;10644;48.834;10.088;2022-12-24T01:55:19;96188.47;;;13.17;71.04
20971;BME280;10644;48.834;10.088;2022-12-24T01:57:54;96190.41;;;13.03;71.55
20971;BME280;10644;48.834;10.088;2022-12-24T02:00:34;96197.22;;;12.91;71.49
20971;BME280;10644;48.834;10.088;2022-12-24T02:03:02;96194.59;;;12.80;72.21
20971;BME280;10644;48.834;10.088;2022-12-24T02:05:43;96200.09;;;12.87;72.04
20971;BME280;10644;48.834;10.088;2022-12-24T02:08:15;96205.06;;;12.77;72.63
20971;BME280;10644;48.834;10.088;2022-12-24T02:10:41;96207.75;;;12.76;72.69
20971;BME280;10644;48.834;10.088;2022-12-24T02:13:06;96232.81;;;12.97;72.12
20971;BME280;10644;48.834;10.088;2022-12-24T02:18:59;96252.22;;;13.01;71.56
20971;BME280;10644;48.834;10.088;2022-12-24T02:24:42;96262.78;;;13.09;72.12
20971;BME280;10644;48.834;10.088;2022-12-24T02:32:42;96289.53;;;13.07;72.12
20971;BME280;10644;48.834;10.088;2022-12-24T02:35:26;96285.44;;;13.04;72.30
20971;BME280;10644;48.834;10.088;2022-12-24T02:38:13;96267.94;;;13.09;72.34
20971;BME280;10644;48.834;10.088;2022-12-24T02:40:47;96281.31;;;12.89;72.75
20971;BME280;10644;48.834;10.088;2022-12-24T02:43:19;96278.84;;;12.88;72.82
20971;BME280;10644;48.834;10.088;2022-12-24T02:46:01;96282.56;;;12.96;72.30
20971;BME280;10644;48.834;10.088;2022-12-24T02:48:29;96288.94;;;12.91;72.23
20971;BME280;10644;48.834;10.088;2022-12-24T02:51:08;96297.78;;;12.87;72.21
20971;BME280;10644;48.834;10.088;2022-12-24T02:53:41;96293.22;;;12.90;72.02
20971;BME280;10644;48.834;10.088;2022-12-24T03:05:01;96310.06;;;12.58;73.42
20971;BME280;10644;48.834;10.088;2022-12-24T03:11:02;96317.16;;;12.55;73.75
20971;BME280;10644;48.834;10.088;2022-12-24T03:13:31;96327.00;;;12.48;74.09
20971;BME280;10644;48.834;10.088;2022-12-24T03:16:05;96328.13;;;12.44;74.35
20971;BME280;10644;48.834;10.088;2022-12-24T03:18:31;96312.03;;;12.55;73.93
20971;BME280;10644;48.834;10.088;2022-12-24T03:21:29;96321.28;;;12.57;73.77
20971;BME280;10644;48.834;10.088;2022-12-24T03:23:58;96319.41;;;12.59;73.39
20971;BME280;10644;48.834;10.088;2022-12-24T03:26:24;96329.78;;;12.70;73.15
20971;BME280;10644;48.834;10.088;2022-12-24T03:28:51;96332.94;;;12.86;72.65
20971;BME280;10644;48.834;10.088;2022-12-24T03:31:20;96343.00;;;12.89;72.41
20971;BME280;10644;48.834;10.088;2022-12-24T03:33:47;96342.22;;;12.89;72.47
20971;BME280;10644;48.834;10.088;2022-12-24T03:36:13;96336.44;;;12.98;71.90
20971;BME280;10644;48.834;10.088;2022-12-24T03:38:40;96331.91;;;13.01;71.60
20971;BME280;10644;48.834;10.088;2022-12-24T03:41:11;96333.47;;;12.91;72.05
20971;BME280;10644;48.834;10.088;2022-12-24T03:43:40;96342.19;;;13.01;71.54
20971;BME280;10644;48.834;10.088;2022-12-24T03:46:12;96344.47;;;12.81;71.97
20971;BME280;10644;48.834;10.088;2022-12-24T03:48:37;96344.03;;;12.87;72.08
20971;BME280;10644;48.834;10.088;2022-12-24T03:51:03;96352.91;;;12.83;71.45
20971;BME280;10644;48.834;10.088;2022-12-24T03:53:42;96364.22;;;12.80;71.87
20971;BME280;10644;48.834;10.088;2022-12-24T03:56:08;96370.56;;;12.87;71.93
20971;BME280;10644;48.834;10.088;2022-12-24T03:58:33;96365.75;;;12.70;72.51
20971;BME280;10644;48.834;10.088;2022-12-24T04:00:59;96375.22;;;12.82;71.89
20971;BME280;10644;48.834;10.088;2022-12-24T04:03:24;96387.03;;;12.72;72.10
20971;BME280;10644;48.834;10.088;2022-12-24T04:06:01;96398.13;;;12.85;72.40
20971;BME280;10644;48.834;10.088;2022-12-24T04:08:26;96382.81;;;12.96;71.55
20971;BME280;10644;48.834;10.088;2022-12-24T04:10:57;96379.81;;;13.02;71.37
20971;BME280;10644;48.834;10.088;2022-12-24T04:13:29;96381.78;;;13.11;71.00
20971;BME280;10644;48.834;10.088;2022-12-24T04:16:01;96380.41;;;13.18;70.75
20971;BME280;10644;48.834;10.088;2022-12-24T04:18:27;96383.94;;;13.17;70.21
20971;BME280;10644;48.834;10.088;2022-12-24T04:20:53;96389.91;;;13.18;70.20
20971;BME280;10644;48.834;10.088;2022-12-24T04:23:20;96390.84;;;13.17;70.15
20971;BME280;10644;48.834;10.088;2022-12-24T04:25:46;96387.63;;;13.13;70.01
20971;BME280;10644;48.834;10.088;2022-12-24T04:28:14;96392.56;;;13.16;70.18
20971;BME280;10644;48.834;10.088;2022-12-24T04:30:44;96402.88;;;13.16;69.92
20971;BME280;10644;48.834;10.088;2022-12-24T04:33:13;96398.44;;;13.18;69.88
20971;BME280;10644;48.834;10.088;2022-12-24T04:35:42;96400.91;;;13.07;70.40
20971;BME280;10644;48.834;10.088;2022-12-24T04:38:08;96388.28;;;13.17;70.33
20971;BME280;10644;48.834;10.088;2022-12-24T04:40:36;96383.06;;;13.29;70.06
20971;BME280;10644;48.834;10.088;2022-12-24T04:43:01;96377.50;;;13.35;69.55
20971;BME280;10644;48.834;10.088;2022-12-24T04:45:27;96382.53;;;13.37;69.41
20971;BME280;10644;48.834;10.088;2022-12-24T04:47:52;96376.88;;;13.44;69.05
20971;BME280;10644;48.834;10.088;2022-12-24T04:50:20;96379.72;;;13.52;68.98
20971;BME280;10644;48.834;10.088;2022-12-24T04:52:47;96377.03;;;13.53;68.68
20971;BME280;10644;48.834;10.088;2022-12-24T04:55:14;96385.50;;;13.56;68.48
20971;BME280;10644;48.834;10.088;2022-12-24T04:57:45;96381.25;;;13.54;68.75
20971;BME280;10644;48.834;10.088;2022-12-24T05:00:13;96390.84;;;13.52;68.43
20971;BME280;10644;48.834;10.088;2022-12-24T05:02:47;96392.72;;;13.51;68.59
20971;BME280;10644;48.834;10.088;2022-12-24T05:05:20;96402.38;;;13.47;68.84
20971;BME280;10644;48.834;10.088;2022-12-24T05:07:46;96403.97;;;13.37;68.91
20971;BME280;10644;48.834;10.088;2022-12-24T05:10:12;96401.59;;;13.34;69.06
20971;BME280;10644;48.834;10.088;2022-12-24T05:12:37;96406.41;;;13.38;68.93
20971;BME280;10644;48.834;10.088;2022-12-24T05:15:03;96410.06;;;13.11;69.24
20971;BME280;10644;48.834;10.088;2022-12-24T05:17:32;96418.50;;;13.13;69.59
20971;BME280;10644;48.834;10.088;2022-12-24T05:20:03;96418.91;;;13.07;69.25
20971;BME280;10644;48.834;10.088;2022-12-24T05:22:38;96416.66;;;13.03;69.71
20971;BME280;10644;48.834;10.088;2022-12-24T05:25:22;96418.31;;;13.04;69.50
20971;BME280;10644;48.834;10.088;2022-12-24T05:28:08;96418.09;;;12.69;70.09
20971;BME280;10644;48.834;10.088;2022-12-24T05:30:39;96411.09;;;12.71;70.19
20971;BME280;10644;48.834;10.088;2022-12-24T05:33:11;96421.34;;;12.46;70.57
20971;BME280;10644;48.834;10.088;2022-12-24T05:35:36;96426.69;;;12.56;70.79
20971;BME280;10644;48.834;10.088;2022-12-24T05:38:02;96428.78;;;12.63;70.42
20971;BME280;10644;48.834;10.088;2022-12-24T05:40:28;96428.13;;;12.72;70.37
20971;BME280;10644;48.834;10.088;2022-12-24T05:42:57;96419.50;;;12.73;70.07
20971;BME280;10644;48.834;10.088;2022-12-24T05:45:23;96415.41;;;12.83;69.87
20971;BME280;10644;48.834;10.088;2022-12-24T05:47:48;96416.00;;;12.87;69.75
20971;BME280;10644;48.834;10.088;2022-12-24T05:50:16;96411.19;;;12.82;69.86
20971;BME280;10644;48.834;10.088;2022-12-24T05:52:41;96407.59;;;12.72;70.06
20971;BME280;10644;48.834;10.088;2022-12-24T05:55:08;96403.69;;;12.67;70.97
20971;BME280;10644;48.834;10.088;2022-12-24T05:57:35;96416.63;;;12.65;70.57
20971;BME280;10644;48.834;10.088;2022-12-24T06:00:07;96408.41;;;12.73;70.74
20971;BME280;10644;48.834;10.088;2022-12-24T06:02:33;96399.47;;;12.78;70.57
20971;BME280;10644;48.834;10.088;2022-12-24T06:04:58;96404.09;;;12.73;70.26
20971;BME280;10644;48.834;10.088;2022-12-24T06:07:23;96408.63;;;12.82;70.73
20971;BME280;10644;48.834;10.088;2022-12-24T06:09:50;96413.97;;;12.92;70.14
20971;BME280;10644;48.834;10.088;2022-12-24T06:12:23;96407.41;;;13.00;69.93
20971;BME280;10644;48.834;10.088;2022-12-24T06:15:07;96417.50;;;13.03;69.63
20971;BME280;10644;48.834;10.088;2022-12-24T06:17:33;96426.84;;;13.04;69.82
20971;BME280;10644;48.834;10.088;2022-12-24T06:20:00;96416.84;;;13.12;69.71
20971;BME280;10644;48.834;10.088;2022-12-24T06:22:26;96424.88;;;13.20;69.53
20971;BME280;10644;48.834;10.088;2022-12-24T06:24:53;96425.25;;;13.27;68.96
20971;BME280;10644;48.834;10.088;2022-12-24T06:27:21;96429.38;;;13.29;69.25
20971;BME280;10644;48.834;10.088;2022-12-24T06:29:47;96431.84;;;13.31;68.89
20971;BME280;10644;48.834;10.088;2022-12-24T06:32:19;96435.53;;;13.39;68.71
20971;BME280;10644;48.834;10.088;2022-12-24T06:34:47;96425.69;;;13.33;68.40
20971;BME280;10644;48.834;10.088;2022-12-24T06:37:13;96420.03;;;13.28;68.43
20971;BME280;10644;48.834;10.088;2022-12-24T06:39:43;96436.09;;;13.19;68.42
20971;BME280;10644;48.834;10.088;2022-12-24T06:42:09;96441.03;;;13.22;68.55
20971;BME280;10644;48.834;10.088;2022-12-24T06:44:38;96444.81;;;13.29;68.67
20971;BME280;10644;48.834;10.088;2022-12-24T06:47:10;96452.25;;;13.34;68.51
20971;BME280;10644;48.834;10.088;2022-12-24T06:49:39;96444.38;;;13.35;68.43
20971;BME280;10644;48.834;10.088;2022-12-24T06:52:04;96441.31;;;13.30;68.18
20971;BME280;10644;48.834;10.088;2022-12-24T06:54:41;96454.47;;;13.38;68.15
20971;BME280;10644;48.834;10.088;2022-12-24T06:57:09;96458.50;;;13.42;67.79
20971;BME280;10644;48.834;10.088;2022-12-24T06:59:42;96454.16;;;13.43;67.92
20971;BME280;10644;48.834;10.088;2022-12-24T07:02:08;96465.19;;;13.45;67.43
20971;BME280;10644;48.834;10.088;2022-12-24T07:04:36;96480.19;;;13.51;67.61
20971;BME280;10644;48.834;10.088;2022-12-24T07:07:01;96483.28;;;13.43;67.13
20971;BME280;10644;48.834;10.088;2022-12-24T07:09:26;96493.59;;;13.43;67.24
20971;BME280;10644;48.834;10.088;2022-12-24T07:11:52;96489.38;;;13.42;67.17
20971;BME280;10644;48.834;10.088;2022-12-24T07:14:17;96498.94;;;13.40;67.05
20971;BME280;10644;48.834;10.088;2022-12-24T07:16:48;96495.56;;;13.40;67.27
20971;BME280;10644;48.834;10.088;2022-12-24T07:19:17;96503.97;;;13.42;67.15
20971;BME280;10644;48.834;10.088;2022-12-24T07:21:44;96504.69;;;13.43;66.99
20971;BME280;10644;48.834;10.088;2022-12-24T07:24:10;96501.41;;;13.42;66.66
20971;BME280;10644;48.834;10.088;2022-12-24T07:26:37;96516.00;;;13.41;66.55
20971;BME280;10644;48.834;10.088;2022-12-24T07:29:02;96511.00;;;13.40;66.49
20971;BME280;10644;48.834;10.088;2022-12-24T07:31:28;96518.09;;;13.36;66.61
20971;BME280;10644;48.834;10.088;2022-12-24T07:33:55;96511.88;;;13.38;66.53
20971;BME280;10644;48.834;10.088;2022-12-24T07:36:21;96523.94;;;13.38;66.25
20971;BME280;10644;48.834;10.088;2022-12-24T07:38:53;96535.16;;;13.25;66.69
20971;BME280;10644;48.834;10.088;2022-12-24T07:41:19;96524.03;;;13.24;66.50
20971;BME280;10644;48.834;10.088;2022-12-24T07:43:49;96530.94;;;13.24;66.55
20971;BME280;10644;48.834;10.088;2022-12-24T07:46:15;96535.06;;;13.26;66.60
20971;BME280;10644;48.834;10.088;2022-12-24T07:48:41;96530.84;;;13.25;66.80
20971;BME280;10644;48.834;10.088;2022-12-24T07:51:06;96527.53;;;13.23;66.27
20971;BME280;10644;48.834;10.088;2022-12-24T07:53:37;96536.63;;;13.29;66.52
20971;BME280;10644;48.834;10.088;2022-12-24T07:56:03;96544.19;;;13.30;66.48
20971;BME280;10644;48.834;10.088;2022-12-24T07:58:29;96547.94;;;13.26;66.36
20971;BME280;10644;48.834;10.088;2022-12-24T08:00:57;96548.31;;;13.32;66.32
20971;BME280;10644;48.834;10.088;2022-12-24T08:03:25;96560.47;;;13.31;66.31
20971;BME280;10644;48.834;10.088;2022-12-24T08:05:56;96560.38;;;13.32;66.69
20971;BME280;10644;48.834;10.088;2022-12-24T08:08:23;96560.16;;;13.35;66.04
20971;BME280;10644;48.834;10.088;2022-12-24T08:10:53;96557.81;;;13.32;66.08
20971;BME280;10644;48.834;10.088;2022-12-24T08:13:32;96558.75;;;13.31;66.40
20971;BME280;10644;48.834;10.088;2022-12-24T08:16:00;96552.03;;;13.29;66.19
20971;BME280;10644;48.834;10.088;2022-12-24T08:18:25;96560.69;;;13.28;66.02
20971;BME280;10644;48.834;10.088;2022-12-24T08:20:52;96568.50;;;13.26;65.94
20971;BME280;10644;48.834;10.088;2022-12-24T08:23:17;96570.34;;;13.24;66.20
20971;BME280;10644;48.834;10.088;2022-12-24T08:25:50;96562.75;;;13.23;66.37
20971;BME280;10644;48.834;10.088;2022-12-24T08:28:26;96555.13;;;13.21;66.33
20971;BME280;10644;48.834;10.088;2022-12-24T08:31:00;96564.06;;;13.28;66.47
20971;BME280;10644;48.834;10.088;2022-12-24T08:33:30;96574.16;;;13.31;66.21
20971;BME280;10644;48.834;10.088;2022-12-24T08:35:56;96570.56;;;13.21;65.68
20971;BME280;10644;48.834;10.088;2022-12-24T08:38:30;96561.91;;;13.22;66.21
20971;BME280;10644;48.834;10.088;2022-12-24T08:40:55;96583.94;;;13.26;66.16
20971;BME280;10644;48.834;10.088;2022-12-24T08:43:23;96587.22;;;13.28;66.20
20971;BME280;10644;48.834;10.088;2022-12-24T08:45:50;96585.47;;;13.29;65.91
20971;BME280;10644;48.834;10.088;2022-12-24T08:48:18;96592.38;;;13.28;66.16
20971;BME280;10644;48.834;10.088;2022-12-24T08:50:53;96595.03;;;13.27;66.36
20971;BME280;10644;48.834;10.088;2022-12-24T08:53:20;96608.41;;;13.32;66.52
20971;BME280;10644;48.834;10.088;2022-12-24T08:56:00;96610.91;;;13.33;66.81
20971;BME280;10644;48.834;10.088;2022-12-24T08:58:25;96604.13;;;13.32;66.58
20971;BME280;10644;48.834;10.088;2022-12-24T09:00:52;96622.03;;;13.34;66.40
20971;BME280;10644;48.834;10.088;2022-12-24T09:03:17;96622.31;;;13.29;66.45
20971;BME280;10644;48.834;10.088;2022-12-24T09:05:48;96634.97;;;13.32;66.99
20971;BME280;10644;48.834;10.088;2022-12-24T09:08:20;96628.81;;;13.35;67.04
20971;BME280;10644;48.834;10.088;2022-12-24T09:10:48;96620.47;;;13.31;66.78
20971;BME280;10644;48.834;10.088;2022-12-24T09:13:14;96630.88;;;13.30;66.87
20971;BME280;10644;48.834;10.088;2022-12-24T09:15:40;96640.63;;;13.25;66.96
20971;BME280;10644;48.834;10.088;2022-12-24T09:18:05;96626.66;;;13.02;68.10
20971;BME280;10644;48.834;10.088;2022-12-24T09:20:34;96634.50;;;13.13;67.96
20971;BME280;10644;48.834;10.088;2022-12-24T09:23:02;96638.75;;;13.27;67.81
20971;BME280;10644;48.834;10.088;2022-12-24T09:25:27;96645.47;;;13.29;67.23
20971;BME280;10644;48.834;10.088;2022-12-24T09:28:01;96642.59;;;13.34;67.04
20971;BME280;10644;48.834;10.088;2022-12-24T09:30:33;96651.75;;;13.38;67.38
20971;BME280;10644;48.834;10.088;2022-12-24T09:32:59;96637.69;;;13.43;66.83
20971;BME280;10644;48.834;10.088;2022-12-24T09:35:24;96646.81;;;13.47;66.92
20971;BME280;10644;48.834;10.088;2022-12-24T09:37:50;96645.69;;;13.51;66.89
20971;BME280;10644;48.834;10.088;2022-12-24T09:40:38;96654.66;;;13.58;66.93
20971;BME280;10644;48.834;10.088;2022-12-24T09:43:28;96662.19;;;13.61;66.80
20971;BME280;10644;48.834;10.088;2022-12-24T09:48:33;96655.78;;;13.66;66.69
20971;BME280;10644;48.834;10.088;2022-12-24T09:51:08;96652.50;;;13.52;66.62
20971;BME280;10644;48.834;10.088;2022-12-24T09:53:59;96648.50;;;13.48;67.01
20971;BME280;10644;48.834;10.088;2022-12-24T09:56:37;96654.78;;;13.57;66.59
20971;BME280;10644;48.834;10.088;2022-12-24T09:59:15;96661.25;;;13.62;66.18
20971;BME280;10644;48.834;10.088;2022-12-24T10:01:42;96659.72;;;13.72;66.11
20971;BME280;10644;48.834;10.088;2022-12-24T10:04:16;96668.78;;;13.65;64.68
20971;BME280;10644;48.834;10.088;2022-12-24T10:15:15;96663.72;;;13.51;64.01
20971;BME280;10644;48.834;10.088;2022-12-24T10:20:53;96662.78;;;13.52;63.98
20971;BME280;10644;48.834;10.088;2022-12-24T10:26:27;96663.19;;;13.46;62.92
20971;BME280;10644;48.834;10.088;2022-12-24T10:29:02;96655.88;;;13.40;63.32
20971;BME280;10644;48.834;10.088;2022-12-24T10:31:34;96659.91;;;13.44;62.68
20971;BME280;10644;48.834;10.088;2022-12-24T10:34:03;96663.81;;;13.37;62.87
20971;BME280;10644;48.834;10.088;2022-12-24T10:36:33;96675.22;;;13.33;62.75
20971;BME280;10644;48.834;10.088;2022-12-24T10:39:03;96671.63;;;13.36;62.53
20971;BME280;10644;48.834;10.088;2022-12-24T10:41:30;96663.59;;;13.40;62.36
20971;BME280;10644;48.834;10.088;2022-12-24T10:43:56;96669.47;;;13.42;62.38
20971;BME280;10644;48.834;10.088;2022-12-24T10:46:36;96671.88;;;13.57;62.62
20971;BME280;10644;48.834;10.088;2022-12-24T10:49:04;96661.38;;;13.85;62.39
20971;BME280;10644;48.834;10.088;2022-12-24T10:51:39;96662.41;;;13.95;61.30
20971;BME280;10644;48.834;10.088;2022-12-24T10:54:17;96661.25;;;14.12;61.89
20971;BME280;10644;48.834;10.088;2022-12-24T10:56:51;96656.59;;;14.42;61.50
20971;BME280;10644;48.834;10.088;2022-12-24T10:59:29;96671.84;;;14.45;60.79
20971;BME280;10644;48.834;10.088;2022-12-24T11:01:59;96668.06;;;14.74;61.24
20971;BME280;10644;48.834;10.088;2022-12-24T11:04:29;96665.44;;;15.10;60.72
20971;BME280;10644;48.834;10.088;2022-12-24T11:07:04;96665.97;;;15.26;59.23
20971;BME280;10644;48.834;10.088;2022-12-24T11:09:32;96664.44;;;15.47;59.43
20971;BME280;10644;48.834;10.088;2022-12-24T11:11:59;96664.19;;;15.39;57.95
20971;BME280;10644;48.834;10.088;2022-12-24T11:14:35;96660.91;;;15.48;58.57
20971;BME280;10644;48.834;10.088;2022-12-24T11:17:05;96664.50;;;15.34;58.00
20971;BME280;10644;48.834;10.088;2022-12-24T11:19:36;96664.56;;;15.22;58.11
20971;BME280;10644;48.834;10.088;2022-12-24T11:22:18;96655.69;;;15.02;58.83
20971;BME280;10644;48.834;10.088;2022-12-24T11:24:57;96655.34;;;15.07;59.04
20971;BME280;10644;48.834;10.088;2022-12-24T11:30:30;96651.09;;;15.29;58.13
20971;BME280;10644;48.834;10.088;2022-12-24T11:35:24;96641.19;;;15.36;57.60
20971;BME280;10644;48.834;10.088;2022-12-24T11:38:11;96655.72;;;15.37;56.58
20971;BME280;10644;48.834;10.088;2022-12-24T11:40:47;96648.16;;;15.23;57.26
20971;BME280;10644;48.834;10.088;2022-12-24T11:43:20;96644.59;;;15.13;56.72
20971;BME280;10644;48.834;10.088;2022-12-24T11:45:51;96657.94;;;15.07;57.55
20971;BME280;10644;48.834;10.088;2022-12-24T11:48:29;96662.03;;;14.86;57.88
20971;BME280;10644;48.834;10.088;2022-12-24T11:51:06;96655.88;;;14.76;57.96
20971;BME280;10644;48.834;10.088;2022-12-24T11:59:09;96664.22;;;14.56;58.49
20971;BME280;10644;48.834;10.088;2022-12-24T12:04:18;96657.28;;;14.92;58.06
20971;BME280;10644;48.834;10.088;2022-12-24T12:06:51;96663.31;;;14.80;58.06
20971;BME280;10644;48.834;10.088;2022-12-24T12:09:51;96655.72;;;14.66;58.43
20971;BME280;10644;48.834;10.088;2022-12-24T12:12:27;96657.09;;;14.47;59.17
20971;BME280;10644;48.834;10.088;2022-12-24T12:14:56;96658.75;;;14.48;59.71
20971;BME280;10644;48.834;10.088;2022-12-24T12:20:46;96648.00;;;14.90;58.53
20971;BME280;10644;48.834;10.088;2022-12-24T12:23:35;96639.88;;;15.07;57.40
20971;BME280;10644;48.834;10.088;2022-12-24T12:28:50;96639.38;;;15.02;58.23
20971;BME280;10644;48.834;10.088;2022-12-24T12:31:22;96635.19;;;15.12;57.27
20971;BME280;10644;48.834;10.088;2022-12-24T12:34:08;96630.63;;;15.15;57.78
20971;BME280;10644;48.834;10.088;2022-12-24T12:36:44;96636.00;;;15.36;56.38
20971;BME280;10644;48.834;10.088;2022-12-24T12:39:12;96640.38;;;15.46;56.23
20971;BME280;10644;48.834;10.088;2022-12-24T12:44:33;96655.53;;;15.27;56.21
20971;BME280;10644;48.834;10.088;2022-12-24T12:47:32;96656.09;;;15.20;56.20
20971;BME280;10644;48.834;10.088;2022-12-24T12:50:24;96651.22;;;15.04;56.48
20971;BME280;10644;48.834;10.088;2022-12-24T12:53:30;96657.00;;;15.08;57.19
20971;BME280;10644;48.834;10.088;2022-12-24T13:15:59;96682.44;;;15.12;58.12
20971;BME280;10644;48.834;10.088;2022-12-24T13:21:42;96688.81;;;15.43;57.57
20971;BME280;10644;48.834;10.088;2022-12-24T13:24:20;96687.88;;;15.33;57.58
20971;BME280;10644;48.834;10.088;2022-12-24T13:34:53;96680.69;;;14.66;60.34
20971;BME280;10644;48.834;10.088;2022-12-24T13:37:31;96692.84;;;14.64;60.83
20971;BME280;10644;48.834;10.088;2022-12-24T13:40:12;96697.28;;;14.74;60.60
20971;BME280;10644;48.834;10.088;2022-12-24T13:53:03;96691.78;;;14.43;62.75
20971;BME280;10644;48.834;10.088;2022-12-24T13:55:29;96702.66;;;14.59;61.89
20971;BME280;10644;48.834;10.088;2022-12-24T13:58:03;96704.19;;;14.61;61.95
20971;BME280;10644;48.834;10.088;2022-12-24T14:00:40;96704.25;;;14.72;61.96
20971;BME280;10644;48.834;10.088;2022-12-24T14:08:12;96708.97;;;14.91;61.84
20971;BME280;10644;48.834;10.088;2022-12-24T14:10:43;96716.06;;;15.00;61.55
20971;BME280;10644;48.834;10.088;2022-12-24T14:16:12;96708.50;;;15.09;61.37
20971;BME280;10644;48.834;10.088;2022-12-24T14:18:46;96707.09;;;15.16;61.18
20971;BME280;10644;48.834;10.088;2022-12-24T14:21:21;96707.50;;;15.23;61.05
20971;BME280;10644;48.834;10.088;2022-12-24T14:23:53;96707.25;;;15.26;61.41
20971;BME280;10644;48.834;10.088;2022-12-24T14:26:23;96702.34;;;15.23;61.21
20971;BME280;10644;48.834;10.088;2022-12-24T14:29:16;96701.41;;;15.24;61.35
20971;BME280;10644;48.834;10.088;2022-12-24T14:31:58;96693.88;;;15.21;61.51
20971;BME280;10644;48.834;10.088;2022-12-24T14:34:24;96699.25;;;15.18;61.49
20971;BME280;10644;48.834;10.088;2022-12-24T14:37:13;96695.59;;;15.09;61.52
20971;BME280;10644;48.834;10.088;2022-12-24T14:39:45;96690.63;;;15.06;61.78
20971;BME280;10644;48.834;10.088;2022-12-24T14:48:07;96680.16;;;14.97;61.93
20971;BME280;10644;48.834;10.088;2022-12-24T14:50:57;96681.28;;;14.93;61.88
20971;BME280;10644;48.834;10.088;2022-12-24T14:53:32;96681.63;;;14.88;62.32
20971;BME280;10644;48.834;10.088;2022-12-24T14:56:13;96684.09;;;14.90;62.09
20971;BME280;10644;48.834;10.088;2022-12-24T14:58:39;96691.75;;;14.91;62.47
20971;BME280;10644;48.834;10.088;2022-12-24T15:06:48;96695.03;;;14.93;62.28
20971;BME280;10644;48.834;10.088;2022-12-24T15:09:26;96686.44;;;14.93;62.16
20971;BME280;10644;48.834;10.088;2022-12-24T15:11:58;96691.41;;;14.96;62.26
20971;BME280;10644;48.834;10.088;2022-12-24T15:14:28;96688.81;;;14.96;62.29
20971;BME280;10644;48.834;10.088;2022-12-24T15:17:13;96695.63;;;14.97;62.14
20971;BME280;10644;48.834;10.088;2022-12-24T15:19:41;96693.06;;;14.97;62.02